Monday, January 21, 2019, 5:12 PM EST
Back to Local

KMIV, Millville Municipal Airport

Location: Millville, NJ, United States Lat: 39.367
Local Time: 5:12 PM EST (22:12 GMT) Lon: -75.083
Time Zone: US/Eastern Elev: 85 ft

Show me the last for .
Show Coded

Time T Td Feel RH Dir Speed Gust Alt SLP Vis Weather Sky Remarks
2019-01-21 16:54 - - - 0 290° 23 31 30.30 - 10 CLR Peak wind: 36 mph (32 kts) from 310° at 02 min
2019-01-21 15:54 - - - 0 300° 21 37 30.27 - 10 CLR Peak wind: 37 mph (33 kts) from 310° at 07 min
2019-01-21 14:54 - - - 0 290° 24 37 30.24 - 10 CLR Peak wind: 39 mph (34 kts) from 330° at 21 min
2019-01-21 13:54 - - - 0 320° 21 33 30.23 - 10 CLR Peak wind: 36 mph (32 kts) from 320° at 05 min
2019-01-21 12:54 - - - 0 320° 20 32 30.21 - 10 CLR Peak wind: 39 mph (34 kts) from 300° at 31 min
2019-01-21 11:54 - - - 0 300° 23 41 30.20 - 10 CLR Peak wind: 41 mph (36 kts) from 300° at 48 min
2019-01-21 10:54 - - - 0 310° 26 38 30.20 - 10 CLR Peak wind: 39 mph (34 kts) from 310° at 19 min
2019-01-21 09:54 - - - 0 290° 22 37 30.18 - 10 CLR Peak wind: 41 mph (36 kts) from 300° at 32 min
2019-01-21 08:54 - - - 0 300° 28 37 30.14 - 10 CLR Peak wind: 40 mph (35 kts) from 290° at 37 min
2019-01-21 07:54 - - - 0 300° 21 39 30.11 - 10 CLR Peak wind: 39 mph (34 kts) from 290° at 14 min
2019-01-21 06:54 - - - 0 300° 20 29 30.07 - 10 CLR Peak wind: 36 mph (32 kts) from 320° at 00 min
24-hr Precip Total (7am): 0.16"
2019-01-21 05:54 - - - 0 300° 15 28 30.05 - 10 CLR Peak wind: 37 mph (33 kts) from 310° at 32 min
2019-01-21 04:54 - - - 0 300° 23 35 30.02 - 10 CLR Peak wind: 34 mph (30 kts) from 310° at 54 min
2019-01-21 03:54 - - - 0 300° 18 29 29.99 - 10 CLR Peak wind: 34 mph (30 kts) from 320° at 41 min
2019-01-21 02:54 - - - 0 300° 21 29 29.97 - 10 CLR Peak wind: 32 mph (28 kts) from 320° at 22 min
2019-01-21 01:54 - - - 0 310° 24 35 29.95 - 10 CLR Peak wind: 42 mph (37 kts) from 330° at 20 min
2019-01-21 00:54 - - - 0 290° 23 39 29.92 - 10 CLR Peak wind: 39 mph (34 kts) from 310° at 46 min
2019-01-20 23:54 - - - 0 300° 24 36 29.88 - 10 CLR Peak wind: 37 mph (33 kts) from 300° at 31 min
2019-01-20 22:54 - - - 0 290° 24 35 29.85 - 10 CLR Peak wind: 39 mph (34 kts) from 310° at 40 min
2019-01-20 21:54 - - - 0 310° 15 35 29.80 - 10 BKN041 Peak wind: 37 mph (33 kts) from 310° at 23 min
2019-01-20 20:54 - - - 0 310° 17 35 29.76 - 10 OVC041 Peak wind: 37 mph (33 kts) from 310° at 35 min
2019-01-20 19:54 - - - 0 320° 17 30 29.71 - 10 OVC039 Peak wind: 35 mph (31 kts) from 310° at 33 min
2019-01-20 18:54 - - - 0 300° 24 38 29.69 - 10 OVC034 Peak wind: 37 mph (33 kts) from 310° at 54 min
2019-01-20 17:54 - - - 0 320° 20 36 29.64 - 10 CLR Peak wind: 39 mph (34 kts) from 330° at 41 min

Support USWX by starting your Amazon purchase here.